createdAt,value
2017-10-07T00:00:29.625Z,2.90
2017-10-07T00:02:58.718Z,4.63
2017-10-07T00:05:28.766Z,2.37
2017-10-07T00:07:59.071Z,3.20
2017-10-07T00:10:28.946Z,2.90
2017-10-07T00:12:58.815Z,2.20
2017-10-07T00:15:27.997Z,3.87
2017-10-07T00:17:57.851Z,3.27
2017-10-07T00:20:26.933Z,2.50
2017-10-07T00:22:57.418Z,2.10
2017-10-07T00:25:26.527Z,2.70
2017-10-07T00:27:56.300Z,4.07
2017-10-07T00:30:27.143Z,2.90
2017-10-07T00:32:57.762Z,2.93
2017-10-07T00:35:26.934Z,1.77
2017-10-07T00:37:56.405Z,2.70
2017-10-07T00:40:26.278Z,1.80
2017-10-07T00:42:55.447Z,2.23
2017-10-07T00:45:25.708Z,2.30
2017-10-07T00:47:54.859Z,2.83
2017-10-07T00:50:23.988Z,2.73
2017-10-07T00:52:53.253Z,1.87
2017-10-07T00:55:22.445Z,2.33
2017-10-07T00:57:51.685Z,2.30
2017-10-07T01:00:21.106Z,3.10
2017-10-07T01:02:50.284Z,2.80
2017-10-07T01:05:19.579Z,1.97
2017-10-07T01:07:50.235Z,2.13
2017-10-07T01:10:19.384Z,1.90
2017-10-07T01:12:48.543Z,2.47
2017-10-07T01:15:17.981Z,1.63
2017-10-07T01:17:47.110Z,2.00
2017-10-07T01:20:16.278Z,1.70
2017-10-07T01:22:46.830Z,2.93
2017-10-07T01:25:16.030Z,2.15
2017-10-07T01:27:45.200Z,2.42
2017-10-07T01:30:16.758Z,2.03
2017-10-07T01:32:45.880Z,1.90
2017-10-07T01:35:15.795Z,1.90
2017-10-07T01:37:46.946Z,1.77
2017-10-07T01:40:16.103Z,1.57
2017-10-07T01:42:45.264Z,2.90
2017-10-07T01:45:14.419Z,1.55
2017-10-07T01:47:43.534Z,1.83
2017-10-07T01:50:13.409Z,1.57
2017-10-07T01:52:43.050Z,1.97
2017-10-07T01:55:12.211Z,1.63
2017-10-07T01:57:42.091Z,1.30
2017-10-07T02:00:11.841Z,1.30
2017-10-07T02:02:41.717Z,1.45
2017-10-07T02:05:10.843Z,1.52
2017-10-07T02:07:39.985Z,1.55
2017-10-07T02:10:11.081Z,1.40
2017-10-07T02:12:40.676Z,1.00
2017-10-07T02:15:10.554Z,1.10
2017-10-07T02:17:39.701Z,1.50
2017-10-07T02:20:10.404Z,1.12
2017-10-07T02:22:39.493Z,1.95
2017-10-07T02:25:08.693Z,1.85
2017-10-07T02:27:38.404Z,1.35
2017-10-07T02:30:07.577Z,1.00
2017-10-07T02:32:36.668Z,1.48
2017-10-07T02:35:05.802Z,1.47
2017-10-07T02:37:35.703Z,1.40
2017-10-07T02:40:04.834Z,1.52
2017-10-07T02:42:34.821Z,1.40
2017-10-07T02:45:03.969Z,2.10
2017-10-07T02:47:33.077Z,1.63
2017-10-07T02:50:02.514Z,1.00
2017-10-07T02:52:32.381Z,1.00
2017-10-07T02:55:01.477Z,0.93
2017-10-07T02:57:31.439Z,1.58
2017-10-07T03:00:00.550Z,1.00
2017-10-07T03:02:29.647Z,1.80
2017-10-07T03:04:59.308Z,1.50
2017-10-07T03:07:28.466Z,1.43
2017-10-07T03:09:57.603Z,1.43
2017-10-07T03:12:28.442Z,0.90
2017-10-07T03:14:57.591Z,1.35
2017-10-07T03:17:27.562Z,1.77
2017-10-07T03:19:57.088Z,1.25
2017-10-07T03:22:26.302Z,1.43
2017-10-07T03:24:57.150Z,2.45
2017-10-07T03:27:26.337Z,1.87
2017-10-07T03:29:56.491Z,1.10
2017-10-07T03:32:25.779Z,1.25
2017-10-07T03:34:55.801Z,0.90
2017-10-07T03:37:25.011Z,0.90
2017-10-07T03:39:54.167Z,1.35
2017-10-07T03:42:23.945Z,1.52
2017-10-07T03:44:53.082Z,1.03
2017-10-07T03:47:22.826Z,1.00
2017-10-07T03:49:52.906Z,1.00
2017-10-07T03:52:22.038Z,1.17
2017-10-07T03:54:51.274Z,0.80
2017-10-07T03:57:20.537Z,0.60
2017-10-07T03:59:49.724Z,0.63
2017-10-07T04:02:18.909Z,0.90
2017-10-07T04:04:48.515Z,0.70
2017-10-07T04:07:17.654Z,0.97
2017-10-07T04:09:46.924Z,1.05
2017-10-07T04:12:17.279Z,0.73
2017-10-07T04:14:46.369Z,0.90
2017-10-07T04:17:15.510Z,0.90
2017-10-07T04:19:45.463Z,1.10
2017-10-07T04:22:14.623Z,2.17
2017-10-07T04:24:43.740Z,1.02
2017-10-07T04:27:12.865Z,0.90
2017-10-07T04:29:41.962Z,1.03
2017-10-07T04:32:11.116Z,1.87
2017-10-07T04:34:40.924Z,1.10
2017-10-07T04:37:10.053Z,0.70
2017-10-07T04:39:39.165Z,0.97
2017-10-07T04:42:09.452Z,1.50
2017-10-07T04:44:38.573Z,0.88
2017-10-07T04:47:07.741Z,1.98
2017-10-07T04:49:37.300Z,0.90
2017-10-07T04:52:06.436Z,0.80
2017-10-07T04:54:35.513Z,0.90
2017-10-07T04:57:04.960Z,0.60
2017-10-07T04:59:34.074Z,0.90
2017-10-07T05:02:03.171Z,1.00
2017-10-07T05:04:33.558Z,0.73
2017-10-07T05:07:03.661Z,0.80
2017-10-07T05:09:33.617Z,0.90
2017-10-07T05:12:03.087Z,0.90
2017-10-07T05:14:32.211Z,0.90
2017-10-07T05:17:01.383Z,0.75
2017-10-07T05:19:30.917Z,0.80
2017-10-07T05:22:00.030Z,1.40
2017-10-07T05:24:29.189Z,2.40
2017-10-07T05:26:58.730Z,0.73
2017-10-07T05:29:27.981Z,1.10
2017-10-07T05:31:57.163Z,1.00
2017-10-07T05:34:26.463Z,0.90
2017-10-07T05:36:55.625Z,2.90
2017-10-07T05:39:24.776Z,1.58
2017-10-07T05:41:53.930Z,1.90
2017-10-07T05:44:23.079Z,1.37
2017-10-07T05:46:53.584Z,1.70
2017-10-07T05:49:23.035Z,1.40
2017-10-07T05:51:52.925Z,1.40
2017-10-07T05:54:22.138Z,1.90
2017-10-07T05:56:51.632Z,1.85
2017-10-07T05:59:20.825Z,1.25
2017-10-07T06:01:50.165Z,1.87
2017-10-07T06:04:19.823Z,1.20
2017-10-07T06:06:48.961Z,2.13
2017-10-07T06:09:19.068Z,2.20
2017-10-07T06:11:49.582Z,1.90
2017-10-07T06:14:18.792Z,1.73
2017-10-07T06:16:47.998Z,1.97
2017-10-07T06:19:17.299Z,1.57
2017-10-07T06:21:46.921Z,1.40
2017-10-07T06:24:16.093Z,1.37
2017-10-07T06:26:45.399Z,1.23
2017-10-07T06:29:15.286Z,1.50
2017-10-07T06:31:44.428Z,1.83
2017-10-07T06:34:15.188Z,1.52
2017-10-07T06:36:44.306Z,1.23
2017-10-07T06:39:13.400Z,1.67
2017-10-07T06:41:44.040Z,1.50
2017-10-07T06:44:13.898Z,1.93
2017-10-07T06:46:43.081Z,1.40
2017-10-07T06:49:13.263Z,1.20
2017-10-07T06:51:42.389Z,1.67
2017-10-07T06:54:11.511Z,1.83
2017-10-07T06:56:40.647Z,1.47
2017-10-07T06:59:10.501Z,1.67
2017-10-07T07:01:39.661Z,2.03
2017-10-07T07:04:09.143Z,1.93
2017-10-07T07:06:38.263Z,1.87
2017-10-07T07:09:07.359Z,2.20
2017-10-07T07:11:36.769Z,1.70
2017-10-07T07:14:05.853Z,2.50
2017-10-07T07:16:34.951Z,2.37
2017-10-07T07:19:05.262Z,2.70
2017-10-07T07:21:34.462Z,1.97
2017-10-07T07:24:03.597Z,2.43
2017-10-07T07:26:33.505Z,3.53
2017-10-07T07:29:02.638Z,2.00
2017-10-07T07:31:32.495Z,1.80
2017-10-07T07:34:01.642Z,3.17
2017-10-07T07:36:30.788Z,2.93
2017-10-07T07:38:59.939Z,2.90
2017-10-07T07:41:29.241Z,3.50
2017-10-07T07:44:00.263Z,3.57
2017-10-07T07:46:29.972Z,3.27
2017-10-07T07:49:00.365Z,3.90
2017-10-07T07:51:29.558Z,4.10
2017-10-07T07:53:59.579Z,3.73
2017-10-07T07:56:29.518Z,5.00
2017-10-07T07:58:58.617Z,3.57
2017-10-07T08:01:27.768Z,4.57
2017-10-07T08:03:57.519Z,4.27
2017-10-07T08:06:26.858Z,4.03
2017-10-07T08:08:56.043Z,3.50
2017-10-07T08:11:25.549Z,4.73
2017-10-07T08:13:54.822Z,3.27
2017-10-07T08:16:23.995Z,3.87
2017-10-07T08:18:54.560Z,3.50
2017-10-07T08:21:24.694Z,3.70
2017-10-07T08:23:53.878Z,4.00
2017-10-07T08:26:24.302Z,3.47
2017-10-07T08:28:54.747Z,3.00
2017-10-07T08:31:25.010Z,2.90
2017-10-07T08:33:55.131Z,4.03
2017-10-07T08:36:24.396Z,3.90
2017-10-07T08:38:55.196Z,4.93
2017-10-07T08:41:24.562Z,3.50
2017-10-07T08:43:53.706Z,4.20
2017-10-07T08:46:24.069Z,4.50
2017-10-07T08:48:54.986Z,3.90
2017-10-07T08:51:24.183Z,3.47
2017-10-07T08:53:53.439Z,4.47
2017-10-07T08:56:22.959Z,3.90
2017-10-07T08:58:52.193Z,4.17
2017-10-07T09:01:21.633Z,4.40
2017-10-07T09:03:51.171Z,4.10
2017-10-07T09:06:20.295Z,4.07
2017-10-07T09:08:50.319Z,4.23
2017-10-07T09:11:20.714Z,3.37
2017-10-07T09:13:50.859Z,4.20
2017-10-07T09:16:20.976Z,4.53
2017-10-07T09:18:51.862Z,4.87
2017-10-07T09:21:21.121Z,5.23
2017-10-07T09:23:53.989Z,4.10
2017-10-07T09:26:23.902Z,6.20
2017-10-07T09:28:53.103Z,4.85
2017-10-07T09:31:22.612Z,5.40
2017-10-07T09:33:52.029Z,4.60
2017-10-07T09:36:21.241Z,4.50
2017-10-07T09:38:51.789Z,5.30
2017-10-07T09:41:22.317Z,4.37
2017-10-07T09:43:51.760Z,3.20
2017-10-07T09:46:22.547Z,5.60
2017-10-07T09:48:51.895Z,4.47
2017-10-07T09:51:22.337Z,4.55
2017-10-07T09:53:52.064Z,4.90
2017-10-07T09:56:22.061Z,3.70
2017-10-07T09:58:51.984Z,4.23
2017-10-07T10:01:21.131Z,3.90
2017-10-07T10:03:51.227Z,3.70
2017-10-07T10:06:20.352Z,3.50
2017-10-07T10:08:49.594Z,4.18
2017-10-07T10:11:18.794Z,3.50
2017-10-07T10:13:47.912Z,4.40
2017-10-07T10:16:17.434Z,3.80
2017-10-07T10:18:46.561Z,4.00
2017-10-07T10:21:15.684Z,5.30
2017-10-07T10:23:44.947Z,4.50
2017-10-07T10:26:14.054Z,3.73
2017-10-07T10:28:43.198Z,4.53
2017-10-07T10:31:12.420Z,3.83
2017-10-07T10:33:42.363Z,4.57
2017-10-07T10:36:12.407Z,4.43
2017-10-07T10:38:42.628Z,4.78
2017-10-07T10:41:11.754Z,4.27
2017-10-07T10:43:40.926Z,5.17
2017-10-07T10:46:10.438Z,4.47
2017-10-07T10:48:39.582Z,5.18
2017-10-07T10:51:08.770Z,5.80
2017-10-07T10:53:38.309Z,4.90
2017-10-07T10:56:07.474Z,5.53
2017-10-07T10:58:36.623Z,5.00
2017-10-07T11:01:06.700Z,5.05
2017-10-07T11:03:35.868Z,4.75
2017-10-07T11:06:05.005Z,4.00
2017-10-07T11:08:34.986Z,5.07
2017-10-07T11:11:04.149Z,5.63
2017-10-07T11:13:33.348Z,5.28
2017-10-07T11:16:04.354Z,4.97
2017-10-07T11:18:33.708Z,5.30
2017-10-07T11:21:03.740Z,5.03
2017-10-07T11:23:32.956Z,6.57
2017-10-07T11:26:02.112Z,4.20
2017-10-07T11:28:31.311Z,4.40
2017-10-07T11:31:00.629Z,4.53
2017-10-07T11:33:29.764Z,5.03
2017-10-07T11:35:58.917Z,5.43
2017-10-07T11:38:28.258Z,5.50
2017-10-07T11:40:57.482Z,5.20
2017-10-07T11:43:26.580Z,5.50
2017-10-07T11:45:55.797Z,5.10
2017-10-07T11:48:24.913Z,4.53
2017-10-07T11:50:54.001Z,4.27
2017-10-07T11:53:25.185Z,4.07
2017-10-07T11:55:54.302Z,4.93
2017-10-07T11:58:23.390Z,4.30
2017-10-07T12:00:52.608Z,5.37
2017-10-07T12:03:22.485Z,4.70
2017-10-07T12:05:52.360Z,4.60
2017-10-07T12:08:22.099Z,5.30
2017-10-07T12:10:51.212Z,5.03
2017-10-07T12:13:20.367Z,5.12
2017-10-07T12:15:49.973Z,5.57
2017-10-07T12:18:19.078Z,4.00
2017-10-07T12:20:48.982Z,3.83
2017-10-07T12:23:18.539Z,4.37
2017-10-07T12:25:47.639Z,3.80
2017-10-07T12:28:17.510Z,3.80
2017-10-07T12:30:47.693Z,3.90
2017-10-07T12:33:16.840Z,3.57
2017-10-07T12:35:46.000Z,4.10
2017-10-07T12:38:16.043Z,3.10
2017-10-07T12:40:45.168Z,3.60
2017-10-07T12:43:14.294Z,4.45
2017-10-07T12:45:45.083Z,4.75
2017-10-07T12:48:14.209Z,3.28
2017-10-07T12:50:44.154Z,3.30
2017-10-07T12:53:13.644Z,4.85
2017-10-07T12:55:42.769Z,3.60
2017-10-07T12:58:12.728Z,4.03
2017-10-07T13:00:42.248Z,3.55
2017-10-07T13:03:11.809Z,4.90
2017-10-07T13:05:43.392Z,4.03
2017-10-07T13:08:12.994Z,5.62
2017-10-07T13:10:42.091Z,5.00
2017-10-07T13:13:11.311Z,5.20
2017-10-07T13:15:40.916Z,5.65
2017-10-07T13:18:10.029Z,6.22
2017-10-07T13:20:39.194Z,6.90
2017-10-07T13:23:08.424Z,8.10
2017-10-07T13:25:37.669Z,8.60
2017-10-07T13:28:06.922Z,7.80
2017-10-07T13:30:36.254Z,7.03
2017-10-07T13:33:05.441Z,8.15
2017-10-07T13:35:34.602Z,7.78
2017-10-07T13:38:03.902Z,6.90
2017-10-07T13:40:33.113Z,5.90
2017-10-07T13:43:02.410Z,6.53
2017-10-07T13:45:32.228Z,7.65
2017-10-07T13:48:01.550Z,6.65
2017-10-07T13:50:30.936Z,7.10
2017-10-07T13:53:01.342Z,6.93
2017-10-07T13:55:31.446Z,7.80
2017-10-07T13:58:00.753Z,7.03
2017-10-07T14:00:32.846Z,8.53
2017-10-07T14:03:02.925Z,8.57
2017-10-07T14:05:32.256Z,9.10
2017-10-07T14:08:01.626Z,9.30
2017-10-07T14:10:30.896Z,8.45
2017-10-07T14:13:01.079Z,8.50
2017-10-07T14:15:30.638Z,9.10
2017-10-07T14:17:59.870Z,8.57
2017-10-07T14:20:30.039Z,8.27
2017-10-07T14:23:00.382Z,7.63
2017-10-07T14:25:30.504Z,7.40
2017-10-07T14:28:00.571Z,7.00
2017-10-07T14:30:30.832Z,7.03
2017-10-07T14:33:00.994Z,8.20
2017-10-07T14:35:31.184Z,8.73
2017-10-07T14:38:00.885Z,9.03
2017-10-07T14:40:31.201Z,8.63
2017-10-07T14:43:00.674Z,9.85
2017-10-07T14:45:30.153Z,9.77
2017-10-07T14:47:59.665Z,9.07
2017-10-07T14:50:29.048Z,9.43
2017-10-07T14:52:58.248Z,10.07
2017-10-07T14:55:28.231Z,10.40
2017-10-07T14:57:58.709Z,12.77
2017-10-07T15:00:28.754Z,11.63
2017-10-07T15:02:58.244Z,11.03
2017-10-07T15:05:27.558Z,11.07
2017-10-07T15:07:56.869Z,11.43
2017-10-07T15:10:26.018Z,10.80
2017-10-07T15:12:55.232Z,10.23
2017-10-07T15:15:25.556Z,9.93
2017-10-07T15:17:54.713Z,10.90
2017-10-07T15:20:24.571Z,10.30
2017-10-07T15:22:55.684Z,9.63
2017-10-07T15:25:24.876Z,9.80
2017-10-07T15:27:56.193Z,11.07
2017-10-07T15:30:26.090Z,9.97
2017-10-07T15:32:56.062Z,8.97
2017-10-07T15:35:26.469Z,6.90
2017-10-07T15:37:55.618Z,6.43
2017-10-07T15:40:24.779Z,5.97
2017-10-07T15:42:55.405Z,6.50
2017-10-07T15:45:24.607Z,6.70
2017-10-07T15:47:55.352Z,5.87
2017-10-07T15:50:24.912Z,6.80
2017-10-07T15:52:54.790Z,5.90
2017-10-07T15:55:25.186Z,7.00
2017-10-07T15:57:54.315Z,5.30
2017-10-07T16:00:23.441Z,4.60
2017-10-07T16:02:52.919Z,5.23
2017-10-07T16:05:22.015Z,4.30
2017-10-07T16:07:51.238Z,5.30
2017-10-07T16:10:20.520Z,5.03
2017-10-07T16:12:49.881Z,5.13
2017-10-07T16:15:18.974Z,5.20
2017-10-07T16:17:48.219Z,5.40
2017-10-07T16:20:17.317Z,4.90
2017-10-07T16:22:46.422Z,5.97
2017-10-07T16:25:15.950Z,5.20
2017-10-07T16:27:45.059Z,5.87
2017-10-07T16:30:14.212Z,5.73
2017-10-07T16:32:44.100Z,3.57
2017-10-07T16:35:13.221Z,3.10
2017-10-07T16:37:42.332Z,4.07
2017-10-07T16:40:13.532Z,3.50
2017-10-07T16:42:42.690Z,3.07
2017-10-07T16:45:12.762Z,5.00
2017-10-07T16:47:42.709Z,5.20
2017-10-07T16:50:12.296Z,4.43
2017-10-07T16:52:41.384Z,2.60
2017-10-07T16:55:10.983Z,3.70
2017-10-07T16:57:40.080Z,3.80
2017-10-07T17:00:09.269Z,4.73
2017-10-07T17:02:38.572Z,4.63
2017-10-07T17:05:07.726Z,4.23
2017-10-07T17:07:37.015Z,5.13
2017-10-07T17:10:06.379Z,3.50
2017-10-07T17:12:36.398Z,3.60
2017-10-07T17:15:06.438Z,4.50
2017-10-07T17:17:36.646Z,3.23
2017-10-07T17:20:05.923Z,3.10
2017-10-07T17:22:35.176Z,3.60
2017-10-07T17:25:04.753Z,3.40
2017-10-07T17:27:35.662Z,3.17
2017-10-07T17:30:04.951Z,3.50
2017-10-07T17:32:35.523Z,3.40
2017-10-07T17:35:04.984Z,3.27
2017-10-07T17:37:34.619Z,3.17
2017-10-07T17:40:04.028Z,4.10
2017-10-07T17:42:33.772Z,5.53
2017-10-07T17:45:03.079Z,3.70
2017-10-07T17:47:32.872Z,3.70
2017-10-07T17:50:02.204Z,3.90
2017-10-07T17:52:31.436Z,3.47
2017-10-07T17:55:01.613Z,4.50
2017-10-07T17:57:30.878Z,2.67
2017-10-07T18:00:01.031Z,5.03
2017-10-07T18:02:32.508Z,3.70
2017-10-07T18:05:02.497Z,4.60
2017-10-07T18:07:31.837Z,3.80
2017-10-07T18:10:02.227Z,4.20
2017-10-07T18:12:31.443Z,4.17
2017-10-07T18:15:00.634Z,3.30
2017-10-07T18:17:30.822Z,4.30
2017-10-07T18:19:59.962Z,2.90
2017-10-07T18:22:29.340Z,4.43
2017-10-07T18:24:58.606Z,4.33
2017-10-07T18:27:27.831Z,3.27
2017-10-07T18:29:58.322Z,6.17
2017-10-07T18:32:28.683Z,4.20
2017-10-07T18:34:57.868Z,4.17
2017-10-07T18:37:30.445Z,3.73
2017-10-07T18:40:01.446Z,3.13
2017-10-07T18:42:30.639Z,4.03
2017-10-07T18:44:59.839Z,4.37
2017-10-07T18:47:29.985Z,3.77
2017-10-07T18:49:59.135Z,3.20
2017-10-07T18:52:28.355Z,3.40
2017-10-07T18:55:00.145Z,3.50
2017-10-07T18:57:30.128Z,4.00
2017-10-07T18:59:59.320Z,6.10
2017-10-07T19:02:28.529Z,3.00
2017-10-07T19:04:57.798Z,3.80
2017-10-07T19:07:27.616Z,3.70
2017-10-07T19:09:58.094Z,3.50
2017-10-07T19:12:27.616Z,4.63
2017-10-07T19:14:57.842Z,3.77
2017-10-07T19:17:27.043Z,5.27
2017-10-07T19:19:57.205Z,3.50
2017-10-07T19:22:26.370Z,3.50
2017-10-07T19:24:55.637Z,2.97
2017-10-07T19:27:25.606Z,2.83
2017-10-07T19:29:54.778Z,3.50
2017-10-07T19:32:24.265Z,3.17
2017-10-07T19:34:53.446Z,3.00
2017-10-07T19:37:22.550Z,3.20
2017-10-07T19:39:51.712Z,2.50
2017-10-07T19:42:20.807Z,2.93
2017-10-07T19:44:49.902Z,3.03
2017-10-07T19:47:19.049Z,7.40
2017-10-07T19:49:48.148Z,4.17
2017-10-07T19:52:17.602Z,3.40
2017-10-07T19:54:48.076Z,2.50
2017-10-07T19:57:17.198Z,2.50
2017-10-07T19:59:46.292Z,2.33
2017-10-07T20:02:15.821Z,1.97
2017-10-07T20:04:44.923Z,2.13
2017-10-07T20:07:14.039Z,1.70
2017-10-07T20:09:43.501Z,1.80
2017-10-07T20:12:12.594Z,2.43
2017-10-07T20:14:42.764Z,2.60
2017-10-07T20:17:12.988Z,3.20
2017-10-07T20:19:42.861Z,4.37
2017-10-07T20:22:12.014Z,2.67
2017-10-07T20:24:41.162Z,3.10
2017-10-07T20:27:10.458Z,2.23
2017-10-07T20:29:39.588Z,1.70
2017-10-07T20:32:09.958Z,2.63
2017-10-07T20:34:39.150Z,1.67
2017-10-07T20:37:09.188Z,2.00
2017-10-07T20:39:38.430Z,1.80
2017-10-07T20:42:08.443Z,1.70
2017-10-07T20:44:38.494Z,2.33
2017-10-07T20:47:09.222Z,4.60
2017-10-07T20:49:38.325Z,6.87
2017-10-07T20:52:07.436Z,3.10
2017-10-07T20:54:36.612Z,2.83
2017-10-07T20:57:05.732Z,2.53
2017-10-07T20:59:34.873Z,3.90
2017-10-07T21:02:04.441Z,2.80
2017-10-07T21:04:33.775Z,5.50
2017-10-07T21:07:02.955Z,3.00
2017-10-07T21:09:32.579Z,1.87
2017-10-07T21:12:01.858Z,2.07
2017-10-07T21:14:32.815Z,1.67
2017-10-07T21:17:03.203Z,2.53
2017-10-07T21:19:32.395Z,1.77
2017-10-07T21:22:01.550Z,1.77
2017-10-07T21:24:31.076Z,1.30
2017-10-07T21:27:00.301Z,2.13
2017-10-07T21:29:29.504Z,2.07
2017-10-07T21:31:58.853Z,1.60
2017-10-07T21:34:28.187Z,1.50
2017-10-07T21:36:57.466Z,1.70
2017-10-07T21:39:26.727Z,1.77
2017-10-07T21:41:55.897Z,3.40
2017-10-07T21:44:25.065Z,5.53
2017-10-07T21:46:54.311Z,5.13
2017-10-07T21:49:23.442Z,2.17
2017-10-07T21:51:52.558Z,2.87
2017-10-07T21:54:21.807Z,1.70
2017-10-07T21:56:50.914Z,3.13
2017-10-07T21:59:20.032Z,2.33
2017-10-07T22:01:49.618Z,2.37
2017-10-07T22:04:18.747Z,2.50
2017-10-07T22:06:47.989Z,2.10
2017-10-07T22:09:18.198Z,2.30
2017-10-07T22:11:47.352Z,1.77
2017-10-07T22:14:16.487Z,1.40
2017-10-07T22:16:46.203Z,1.10
2017-10-07T22:19:15.370Z,1.70
2017-10-07T22:21:44.572Z,1.47
2017-10-07T22:24:13.711Z,1.33
2017-10-07T22:26:43.932Z,2.27
2017-10-07T22:29:14.015Z,1.43
2017-10-07T22:31:43.319Z,1.20
2017-10-07T22:34:12.536Z,1.27
2017-10-07T22:36:41.703Z,1.10
2017-10-07T22:39:11.770Z,1.87
2017-10-07T22:41:41.704Z,2.00
2017-10-07T22:44:10.882Z,1.60
2017-10-07T22:46:40.445Z,1.30
2017-10-07T22:49:09.535Z,1.60
2017-10-07T22:51:38.701Z,2.70
2017-10-07T22:54:08.271Z,1.70
2017-10-07T22:56:37.484Z,1.60
2017-10-07T22:59:06.582Z,1.80
2017-10-07T23:01:36.337Z,2.20
2017-10-07T23:04:05.439Z,1.37
2017-10-07T23:06:34.584Z,1.90
2017-10-07T23:09:04.683Z,2.20
2017-10-07T23:11:33.776Z,1.77
2017-10-07T23:14:02.878Z,1.20
2017-10-07T23:16:32.787Z,1.67
2017-10-07T23:19:01.957Z,1.87
2017-10-07T23:21:31.041Z,1.80
2017-10-07T23:24:00.176Z,1.73
2017-10-07T23:26:30.014Z,1.60
2017-10-07T23:28:59.895Z,1.43
2017-10-07T23:31:29.169Z,2.03
2017-10-07T23:33:58.264Z,2.43
2017-10-07T23:36:28.116Z,2.13
2017-10-07T23:38:58.369Z,2.50
2017-10-07T23:41:27.469Z,2.63
2017-10-07T23:43:56.615Z,2.30
2017-10-07T23:46:26.450Z,2.93
2017-10-07T23:48:56.318Z,2.10
2017-10-07T23:51:25.445Z,1.60
2017-10-07T23:53:54.687Z,2.20
2017-10-07T23:56:23.810Z,1.53
2017-10-07T23:58:52.908Z,1.37
